Time;durP1;ratioP1;P1;durP2;ratioP2;P2;SDS_P1;SDS_P2;PMS_P1;PMS_P2;Temp;Humidity;BMP_temperature;BMP_pressure;BME280_temperature;BME280_humidity;BME280_pressure;Samples;Min_cycle;Max_cycle;Signal;HPM_P1;HPM_P2
2023/05/30 00:01:51;;;;;;;0.70;0.70;;;5.90;99.90;;;;;;5032484;28;20667;-83
2023/05/30 00:04:17;;;;;;;0.70;0.70;;;5.80;99.90;;;;;;5032399;28;20201;-82
2023/05/30 00:06:43;;;;;;;0.70;0.70;;;5.80;99.90;;;;;;5032391;28;20205;-82
2023/05/30 00:09:09;;;;;;;0.70;0.70;;;5.80;99.90;;;;;;5032641;28;20201;-82
2023/05/30 00:11:35;;;;;;;0.70;0.70;;;5.70;99.90;;;;;;5032362;28;20208;-82
2023/05/30 00:14:01;;;;;;;0.60;0.60;;;5.70;99.90;;;;;;5032444;28;20209;-83
2023/05/30 00:16:28;;;;;;;0.65;0.65;;;5.70;99.90;;;;;;5032283;28;20193;-82
2023/05/30 00:18:53;;;;;;;0.70;0.70;;;5.70;99.90;;;;;;5035590;28;20275;-82
2023/05/30 00:21:20;;;;;;;0.70;0.70;;;5.60;99.90;;;;;;5036161;28;20248;-82
2023/05/30 00:23:46;;;;;;;0.70;0.70;;;5.50;99.90;;;;;;5036410;28;20274;-83
2023/05/30 00:26:12;;;;;;;0.73;0.73;;;5.50;99.90;;;;;;5036347;28;20553;-83
2023/05/30 00:28:38;;;;;;;0.80;0.80;;;5.50;99.90;;;;;;5035760;28;20193;-82
2023/05/30 00:31:05;;;;;;;0.70;0.70;;;5.50;99.90;;;;;;5036244;28;20204;-82
2023/05/30 00:33:31;;;;;;;0.70;0.70;;;5.50;99.90;;;;;;5053937;28;20185;-83
2023/05/30 00:35:57;;;;;;;0.70;0.70;;;5.90;99.90;;;;;;5053747;28;20222;-83
2023/05/30 00:38:23;;;;;;;0.70;0.70;;;6.70;99.90;;;;;;5035922;28;20194;-83
2023/05/30 00:40:49;;;;;;;0.73;0.73;;;7.10;99.90;;;;;;5036221;28;20190;-83
2023/05/30 00:43:18;;;;;;;0.63;0.63;;;7.30;99.90;;;;;;5035732;28;20714;-83
2023/05/30 00:45:44;;;;;;;0.80;0.80;;;7.60;99.90;;;;;;5033842;28;20217;-83
2023/05/30 00:48:10;;;;;;;1.73;1.63;;;7.80;99.90;;;;;;5016280;28;20230;-84
2023/05/30 00:50:37;;;;;;;0.70;0.70;;;7.90;99.90;;;;;;5033616;28;20703;-83
2023/05/30 00:53:04;;;;;;;0.80;0.80;;;8.00;99.90;;;;;;5033845;28;20665;-83
2023/05/30 00:55:30;;;;;;;0.70;0.70;;;7.80;99.90;;;;;;5022001;28;20201;-83
2023/05/30 00:57:56;;;;;;;0.60;0.60;;;7.90;99.90;;;;;;5035843;28;20293;-82
2023/05/30 01:00:24;;;;;;;0.68;0.68;;;7.90;99.90;;;;;;5035609;28;20296;-87
2023/05/30 01:02:51;;;;;;;0.65;0.65;;;8.20;99.90;;;;;;5035984;28;20574;-87
2023/05/30 01:05:17;;;;;;;0.60;0.60;;;8.20;99.90;;;;;;5038450;22;20288;-65
2023/05/30 01:07:44;;;;;;;0.50;0.50;;;8.40;99.90;;;;;;5032128;28;20191;-66
2023/05/30 01:10:11;;;;;;;0.60;0.60;;;8.50;99.90;;;;;;5034362;28;20724;-65
2023/05/30 01:13:05;;;;;;;0.65;0.65;;;8.60;99.90;;;;;;5033820;28;20195;-65
2023/05/30 01:15:35;;;;;;;0.60;0.60;;;8.60;99.90;;;;;;5033585;28;20264;-65
2023/05/30 01:18:33;;;;;;;0.70;0.70;;;8.50;99.90;;;;;;5032912;28;20203;-65
2023/05/30 01:21:07;;;;;;;0.70;0.70;;;8.40;99.90;;;;;;5031542;28;20214;-64
2023/05/30 01:23:45;;;;;;;0.70;0.70;;;8.30;99.90;;;;;;5033312;28;20612;-64
2023/05/30 01:26:44;;;;;;;0.60;0.60;;;8.20;99.90;;;;;;5033902;28;20687;-64
2023/05/30 01:29:20;;;;;;;0.70;0.70;;;8.00;99.90;;;;;;5030756;28;20202;-64
2023/05/30 01:31:47;;;;;;;0.50;0.50;;;7.80;99.90;;;;;;5032929;28;20236;-64
2023/05/30 01:34:15;;;;;;;0.70;0.70;;;7.70;99.90;;;;;;5033520;28;20294;-64
2023/05/30 01:36:41;;;;;;;0.60;0.60;;;7.70;99.90;;;;;;5033500;28;20273;-64
2023/05/30 01:39:07;;;;;;;0.70;0.70;;;7.50;99.90;;;;;;5033301;28;20226;-64
2023/05/30 01:42:02;;;;;;;0.70;0.70;;;7.50;99.90;;;;;;5033210;28;20191;-64
2023/05/30 01:44:36;;;;;;;0.70;0.70;;;7.40;99.90;;;;;;5031845;28;20237;-64
2023/05/30 01:47:12;;;;;;;0.60;0.60;;;7.40;99.90;;;;;;5033586;28;20190;-64
2023/05/30 01:49:50;;;;;;;0.60;0.60;;;7.50;99.90;;;;;;5032960;28;20625;-63
2023/05/30 01:52:21;;;;;;;0.70;0.70;;;7.60;99.90;;;;;;5033069;28;20221;-63
2023/05/30 01:54:52;;;;;;;0.63;0.63;;;7.70;99.90;;;;;;5033191;28;20599;-64
2023/05/30 01:57:19;;;;;;;0.68;0.68;;;7.80;99.90;;;;;;5033247;28;20197;-66
2023/05/30 01:59:47;;;;;;;0.70;0.70;;;7.90;99.90;;;;;;5033022;28;20606;-65
2023/05/30 02:02:13;;;;;;;0.70;0.70;;;7.90;99.90;;;;;;5032224;28;20198;-65
2023/05/30 02:04:39;;;;;;;0.60;0.60;;;7.90;99.90;;;;;;5043812;28;21220;-64
2023/05/30 02:07:05;;;;;;;0.65;0.65;;;7.90;99.90;;;;;;5052671;28;20251;-64
2023/05/30 02:09:31;;;;;;;0.60;0.60;;;7.90;99.90;;;;;;5052466;28;20254;-64
2023/05/30 02:11:57;;;;;;;0.70;0.70;;;7.80;99.90;;;;;;5052694;28;20667;-64
2023/05/30 02:14:22;;;;;;;0.65;0.65;;;7.90;99.90;;;;;;5052286;28;20217;-64
2023/05/30 02:16:48;;;;;;;0.60;0.60;;;7.90;99.90;;;;;;5052425;28;20197;-64
2023/05/30 02:19:15;;;;;;;0.70;0.70;;;7.90;99.90;;;;;;5034390;28;20197;-64
2023/05/30 02:21:41;;;;;;;1.00;0.90;;;7.90;99.90;;;;;;5052261;28;20205;-64
2023/05/30 02:24:07;;;;;;;0.70;0.70;;;7.90;99.90;;;;;;5052623;28;20577;-64
2023/05/30 02:26:36;;;;;;;0.70;0.70;;;7.90;99.90;;;;;;5052296;28;20273;-64
2023/05/30 02:29:02;;;;;;;0.70;0.70;;;7.90;99.90;;;;;;5052186;28;20190;-64
2023/05/30 02:31:28;;;;;;;0.60;0.60;;;7.90;99.90;;;;;;5052299;28;20194;-64
2023/05/30 02:33:54;;;;;;;0.63;0.63;;;7.90;99.90;;;;;;5052137;28;20240;-64
2023/05/30 02:36:19;;;;;;;0.60;0.60;;;7.90;99.90;;;;;;5051869;28;20193;-64
2023/05/30 02:38:46;;;;;;;0.60;0.60;;;7.90;99.90;;;;;;5051768;28;20189;-64
2023/05/30 02:41:12;;;;;;;0.70;0.70;;;7.90;99.90;;;;;;5033803;28;20189;-65
2023/05/30 02:43:40;;;;;;;0.70;0.70;;;8.00;99.90;;;;;;5051500;28;20784;-65
2023/05/30 02:46:05;;;;;;;0.70;0.70;;;8.00;99.90;;;;;;5052090;28;20719;-65
2023/05/30 02:48:31;;;;;;;0.70;0.70;;;8.00;99.90;;;;;;5051495;28;20202;-64
2023/05/30 02:50:57;;;;;;;0.70;0.70;;;8.00;99.90;;;;;;5051935;28;20197;-65
2023/05/30 02:53:23;;;;;;;0.70;0.70;;;8.00;99.90;;;;;;5051694;28;20742;-65
2023/05/30 02:55:48;;;;;;;0.70;0.70;;;8.00;99.90;;;;;;5051976;28;20233;-65
2023/05/30 02:58:14;;;;;;;0.70;0.70;;;8.10;99.90;;;;;;5051916;28;20269;-65
2023/05/30 03:00:41;;;;;;;0.70;0.70;;;8.10;99.90;;;;;;5046469;28;20656;-65
2023/05/30 03:03:09;;;;;;;0.70;0.70;;;8.20;99.90;;;;;;5055745;28;20190;-66
2023/05/30 03:05:35;;;;;;;0.70;0.70;;;8.20;99.90;;;;;;5051177;28;20287;-65
2023/05/30 03:08:05;;;;;;;0.60;0.60;;;8.20;99.90;;;;;;5051725;28;20221;-65
2023/05/30 03:10:30;;;;;;;0.70;0.70;;;8.20;99.90;;;;;;5051383;28;20198;-66
2023/05/30 03:12:56;;;;;;;0.60;0.60;;;8.30;99.90;;;;;;5051726;28;20189;-65
2023/05/30 03:15:22;;;;;;;0.70;0.70;;;8.30;99.90;;;;;;5051191;28;20213;-65
2023/05/30 03:17:48;;;;;;;0.60;0.60;;;8.30;99.90;;;;;;5051212;28;20196;-66
2023/05/30 03:20:15;;;;;;;0.50;0.50;;;8.30;99.90;;;;;;5050896;28;20330;-65
2023/05/30 03:22:42;;;;;;;0.70;0.70;;;8.30;99.90;;;;;;5037608;28;20194;-65
2023/05/30 03:25:08;;;;;;;1.13;1.02;;;8.30;99.90;;;;;;5031991;28;20564;-65
2023/05/30 03:27:34;;;;;;;0.70;0.70;;;8.40;99.90;;;;;;5051168;28;20205;-64
2023/05/30 03:30:02;;;;;;;0.60;0.60;;;8.40;99.90;;;;;;5051188;28;20199;-65
2023/05/30 03:32:28;;;;;;;0.50;0.50;;;8.40;99.90;;;;;;5051161;28;20555;-65
2023/05/30 03:34:54;;;;;;;0.63;0.63;;;8.50;99.90;;;;;;5051205;28;20268;-65
2023/05/30 03:37:20;;;;;;;0.70;0.70;;;8.50;99.90;;;;;;5050882;28;20251;-65
2023/05/30 03:39:46;;;;;;;0.60;0.60;;;8.50;99.90;;;;;;5051222;28;20185;-65
2023/05/30 03:42:11;;;;;;;0.63;0.63;;;8.50;99.90;;;;;;5051058;28;20600;-66
2023/05/30 03:44:37;;;;;;;0.63;0.63;;;8.50;99.90;;;;;;5050428;28;20246;-65
2023/05/30 03:47:04;;;;;;;0.60;0.60;;;8.50;99.90;;;;;;5051261;28;20602;-66
2023/05/30 03:49:29;;;;;;;0.60;0.60;;;8.50;99.90;;;;;;5050756;28;20284;-65
2023/05/30 03:51:55;;;;;;;1.23;1.13;;;8.50;99.90;;;;;;5032491;28;20288;-65
2023/05/30 03:54:21;;;;;;;0.70;0.70;;;8.50;99.90;;;;;;5050806;28;20193;-66
2023/05/30 03:56:46;;;;;;;0.70;0.70;;;8.60;99.90;;;;;;5051032;28;20243;-65
2023/05/30 03:59:13;;;;;;;0.63;0.63;;;8.70;99.90;;;;;;5050894;28;20190;-66
2023/05/30 04:01:39;;;;;;;0.70;0.70;;;8.80;99.90;;;;;;5050647;28;20664;-65
2023/05/30 04:04:05;;;;;;;0.93;0.93;;;8.80;99.90;;;;;;5050645;28;20234;-65
2023/05/30 04:06:30;;;;;;;0.55;0.55;;;8.90;99.90;;;;;;5050751;28;20327;-65
2023/05/30 04:08:56;;;;;;;0.70;0.70;;;9.00;99.90;;;;;;5051075;28;20555;-65
2023/05/30 04:11:22;;;;;;;0.60;0.60;;;9.10;99.90;;;;;;5050738;28;20232;-66
2023/05/30 04:13:47;;;;;;;0.60;0.60;;;9.10;99.90;;;;;;5051213;28;20194;-65
2023/05/30 04:16:13;;;;;;;0.60;0.60;;;9.20;99.90;;;;;;5050703;28;20955;-65
2023/05/30 04:18:43;;;;;;;0.60;0.60;;;9.30;99.90;;;;;;5050896;28;20274;-65
2023/05/30 04:21:12;;;;;;;0.70;0.70;;;9.30;99.90;;;;;;5050562;28;20224;-66
2023/05/30 04:23:41;;;;;;;0.60;0.60;;;9.40;99.90;;;;;;5050602;28;20189;-65
2023/05/30 04:26:10;;;;;;;0.60;0.60;;;9.50;99.90;;;;;;5050759;28;20276;-65
2023/05/30 04:28:39;;;;;;;0.60;0.60;;;9.60;99.90;;;;;;5050695;28;20198;-65
2023/05/30 04:31:08;;;;;;;0.60;0.60;;;9.70;99.90;;;;;;5032788;28;20587;-65
2023/05/30 04:33:35;;;;;;;0.60;0.60;;;9.80;99.90;;;;;;5050449;28;20204;-64
2023/05/30 04:36:06;;;;;;;1.10;0.88;;;9.80;99.90;;;;;;5032940;28;20189;-67
2023/05/30 04:38:35;;;;;;;0.70;0.70;;;10.00;99.90;;;;;;5050588;28;20698;-67
2023/05/30 04:41:04;;;;;;;0.70;0.70;;;10.10;99.90;;;;;;5050806;28;20193;-67
2023/05/30 04:43:34;;;;;;;0.60;0.60;;;10.20;99.90;;;;;;5050046;28;20273;-65
2023/05/30 04:46:04;;;;;;;0.60;0.60;;;10.20;99.90;;;;;;5050309;28;20219;-65
2023/05/30 04:48:30;;;;;;;0.60;0.60;;;10.30;99.90;;;;;;5049816;28;20659;-66
2023/05/30 04:50:59;;;;;;;0.50;0.50;;;10.30;99.90;;;;;;5050371;28;20247;-65
2023/05/30 04:53:24;;;;;;;0.50;0.50;;;10.40;99.90;;;;;;5050345;28;20185;-65
2023/05/30 04:55:50;;;;;;;0.70;0.70;;;10.50;99.90;;;;;;5050424;28;20626;-66
2023/05/30 04:58:17;;;;;;;0.60;0.60;;;10.60;99.90;;;;;;5050465;28;20194;-65
2023/05/30 05:00:43;;;;;;;0.52;0.52;;;10.70;99.90;;;;;;5050367;28;20220;-67
2023/05/30 05:03:09;;;;;;;0.50;0.50;;;10.70;99.90;;;;;;5050643;28;20182;-66
2023/05/30 05:05:35;;;;;;;0.60;0.60;;;10.70;99.90;;;;;;5053361;28;20581;-65
2023/05/30 05:08:01;;;;;;;0.73;0.73;;;10.80;99.90;;;;;;5054020;28;20197;-66
2023/05/30 05:10:27;;;;;;;0.60;0.60;;;11.00;99.90;;;;;;5053870;28;20570;-65
2023/05/30 05:12:53;;;;;;;0.50;0.50;;;11.00;99.90;;;;;;5054079;28;20194;-65
2023/05/30 05:15:19;;;;;;;0.75;0.75;;;11.10;99.90;;;;;;5053922;28;20786;-68
2023/05/30 05:17:45;;;;;;;0.50;0.50;;;11.20;99.90;;;;;;5054115;28;20197;-66
2023/05/30 05:20:12;;;;;;;0.50;0.50;;;11.40;99.90;;;;;;5053796;28;20675;-66
2023/05/30 05:22:37;;;;;;;0.40;0.40;;;11.40;99.90;;;;;;5053521;28;20209;-65
2023/05/30 05:25:04;;;;;;;0.60;0.60;;;11.50;99.90;;;;;;5053767;28;20255;-66
2023/05/30 05:27:30;;;;;;;0.50;0.50;;;11.40;99.90;;;;;;5052751;28;20185;-66
2023/05/30 05:29:56;;;;;;;0.40;0.40;;;11.40;99.90;;;;;;5053689;28;20647;-67
2023/05/30 05:32:22;;;;;;;0.50;0.50;;;11.40;99.90;;;;;;5053387;28;20198;-66
2023/05/30 05:34:48;;;;;;;0.60;0.60;;;11.50;99.90;;;;;;5053517;28;20952;-66
2023/05/30 05:37:13;;;;;;;0.60;0.60;;;11.60;99.90;;;;;;5035383;28;20300;-66
2023/05/30 05:39:39;;;;;;;0.68;0.68;;;11.70;99.90;;;;;;5053224;28;20284;-66
2023/05/30 05:42:05;;;;;;;0.40;0.40;;;11.70;99.90;;;;;;5053429;28;20649;-65
2023/05/30 05:44:31;;;;;;;0.50;0.50;;;11.90;99.90;;;;;;5052998;28;20198;-66
2023/05/30 05:46:57;;;;;;;0.60;0.60;;;12.10;99.90;;;;;;5053353;28;20549;-66
2023/05/30 05:49:23;;;;;;;0.60;0.60;;;12.20;99.90;;;;;;5053084;28;20212;-66
2023/05/30 05:51:48;;;;;;;0.70;0.70;;;12.30;99.90;;;;;;5053708;28;20200;-66
2023/05/30 05:54:15;;;;;;;0.45;0.45;;;12.40;99.90;;;;;;5053031;28;20301;-66
2023/05/30 05:56:41;;;;;;;0.50;0.50;;;12.30;99.90;;;;;;5053097;28;20224;-66
2023/05/30 05:59:06;;;;;;;0.43;0.43;;;12.30;99.90;;;;;;5053037;28;20190;-65
2023/05/30 06:01:32;;;;;;;0.40;0.40;;;12.50;99.90;;;;;;5052822;28;20279;-66
2023/05/30 06:04:01;;;;;;;0.60;0.60;;;12.60;99.90;;;;;;5052613;28;20225;-66
2023/05/30 06:06:27;;;;;;;0.50;0.50;;;12.90;99.90;;;;;;5052546;28;20204;-66
2023/05/30 06:08:53;;;;;;;0.88;0.88;;;13.00;99.90;;;;;;5053455;28;20181;-67
2023/05/30 06:11:18;;;;;;;0.40;0.40;;;13.10;99.90;;;;;;5052477;28;20224;-67
2023/05/30 06:13:44;;;;;;;0.50;0.50;;;13.20;99.90;;;;;;5052670;28;20267;-66
2023/05/30 06:16:10;;;;;;;0.40;0.40;;;13.10;99.90;;;;;;5052077;28;20236;-66
2023/05/30 06:18:35;;;;;;;0.50;0.50;;;13.20;99.90;;;;;;5052985;28;20394;-66
2023/05/30 06:21:01;;;;;;;0.50;0.50;;;13.30;99.90;;;;;;5052533;28;20273;-66
2023/05/30 06:23:27;;;;;;;0.50;0.50;;;13.50;99.90;;;;;;5052352;28;20197;-66
2023/05/30 06:25:52;;;;;;;0.45;0.45;;;13.60;99.90;;;;;;5052655;28;20589;-67
2023/05/30 06:28:18;;;;;;;0.50;0.50;;;13.80;98.00;;;;;;5052453;28;20197;-66
2023/05/30 06:30:44;;;;;;;0.40;0.40;;;13.80;99.30;;;;;;5052346;28;20198;-65
2023/05/30 06:33:10;;;;;;;0.40;0.40;;;13.90;99.50;;;;;;5052176;28;20201;-66
2023/05/30 06:35:36;;;;;;;0.50;0.50;;;13.90;99.90;;;;;;5051968;28;20216;-66
2023/05/30 06:38:01;;;;;;;0.40;0.40;;;14.00;97.90;;;;;;5052528;28;20190;-67
2023/05/30 06:40:27;;;;;;;0.50;0.50;;;13.90;97.70;;;;;;5052182;28;20190;-67
2023/05/30 06:42:53;;;;;;;0.40;0.40;;;14.00;99.30;;;;;;5053023;28;20208;-66
2023/05/30 06:45:18;;;;;;;0.60;0.60;;;14.10;98.00;;;;;;5051225;28;20197;-68
2023/05/30 06:47:44;;;;;;;0.38;0.38;;;14.30;97.90;;;;;;5052098;28;20284;-66
2023/05/30 06:50:10;;;;;;;0.80;0.80;;;14.40;96.30;;;;;;5034582;28;20220;-67
2023/05/30 06:52:36;;;;;;;0.38;0.38;;;14.40;99.50;;;;;;5034083;28;20212;-67
2023/05/30 06:55:02;;;;;;;0.40;0.40;;;14.70;96.90;;;;;;5052321;28;20205;-67
2023/05/30 06:57:27;;;;;;;0.50;0.50;;;14.70;96.30;;;;;;5033869;28;20194;-67
2023/05/30 06:59:53;;;;;;;0.30;0.30;;;14.80;96.10;;;;;;5052373;28;20193;-66
2023/05/30 07:02:19;;;;;;;0.43;0.43;;;14.70;97.30;;;;;;5033818;28;20707;-67
2023/05/30 07:04:45;;;;;;;0.40;0.40;;;14.80;96.90;;;;;;5033915;28;20233;-66
2023/05/30 07:07:11;;;;;;;0.50;0.50;;;15.00;95.70;;;;;;5051788;28;20255;-67
2023/05/30 07:09:36;;;;;;;0.40;0.40;;;15.20;95.50;;;;;;5051391;28;21609;-67
2023/05/30 07:12:03;;;;;;;0.35;0.35;;;15.50;94.90;;;;;;5052057;28;20181;-66
2023/05/30 07:14:28;;;;;;;0.30;0.30;;;16.00;94.70;;;;;;5051421;28;20201;-67
2023/05/30 07:16:54;;;;;;;0.40;0.40;;;16.40;94.80;;;;;;5051819;28;20646;-66
2023/05/30 07:19:20;;;;;;;0.30;0.30;;;16.30;94.10;;;;;;5051720;28;20189;-67
2023/05/30 07:21:46;;;;;;;0.40;0.40;;;16.00;92.70;;;;;;5052223;28;20182;-66
2023/05/30 07:24:11;;;;;;;0.47;0.47;;;15.70;93.60;;;;;;5051048;28;20205;-66
2023/05/30 07:26:37;;;;;;;0.57;0.57;;;15.60;93.00;;;;;;5050954;28;20590;-66
2023/05/30 07:29:03;;;;;;;0.50;0.50;;;15.70;93.30;;;;;;5050926;28;20687;-66
2023/05/30 07:31:29;;;;;;;0.30;0.30;;;15.80;93.80;;;;;;5051329;28;20694;-66
2023/05/30 07:33:55;;;;;;;0.30;0.30;;;16.20;92.70;;;;;;5051551;28;20349;-68
2023/05/30 07:36:20;;;;;;;0.40;0.40;;;16.70;93.60;;;;;;5051060;28;20205;-67
2023/05/30 07:38:46;;;;;;;0.45;0.45;;;17.10;92.60;;;;;;5051614;28;20225;-67
2023/05/30 07:41:12;;;;;;;0.30;0.30;;;17.50;91.50;;;;;;5051360;28;20202;-67
2023/05/30 07:43:37;;;;;;;0.40;0.40;;;17.80;91.20;;;;;;5050842;28;20667;-66
2023/05/30 07:46:03;;;;;;;0.20;0.20;;;17.70;89.10;;;;;;5051523;28;20189;-66
2023/05/30 07:48:29;;;;;;;3.85;0.55;;;17.60;90.30;;;;;;5033263;28;20656;-67
2023/05/30 07:50:54;;;;;;;0.30;0.30;;;17.70;89.30;;;;;;5051383;28;20193;-67
2023/05/30 07:53:20;;;;;;;0.30;0.30;;;18.00;87.10;;;;;;5050984;28;20555;-67
2023/05/30 07:55:46;;;;;;;0.20;0.20;;;18.10;88.20;;;;;;5051256;28;20212;-67
2023/05/30 07:58:12;;;;;;;0.30;0.30;;;18.10;83.70;;;;;;5051250;28;20579;-67
2023/05/30 08:00:37;;;;;;;0.30;0.30;;;18.00;84.40;;;;;;5050919;28;20203;-67
2023/05/30 08:03:03;;;;;;;0.30;0.30;;;17.80;85.10;;;;;;5050512;28;20201;-69
2023/05/30 08:05:29;;;;;;;0.20;0.20;;;18.20;86.00;;;;;;5050466;28;20743;-67
2023/05/30 08:07:54;;;;;;;0.30;0.30;;;18.40;81.70;;;;;;5051123;28;20698;-67
2023/05/30 08:10:20;;;;;;;0.20;0.20;;;18.50;84.40;;;;;;5050804;28;20200;-67
2023/05/30 08:12:46;;;;;;;0.30;0.30;;;18.40;80.50;;;;;;5051210;28;20204;-67
2023/05/30 08:15:12;;;;;;;6.50;1.48;;;18.30;80.20;;;;;;5051097;28;20209;-67
2023/05/30 08:17:40;;;;;;;0.25;0.25;;;18.30;85.20;;;;;;5050942;28;20587;-66
2023/05/30 08:20:12;;;;;;;0.20;0.20;;;18.70;84.70;;;;;;5051062;28;20276;-64
2023/05/30 08:22:38;;;;;;;0.30;0.30;;;18.70;84.60;;;;;;5051108;28;20197;-66
2023/05/30 08:25:03;;;;;;;0.63;0.63;;;18.90;79.70;;;;;;5050423;28;21041;-66
2023/05/30 08:27:31;;;;;;;0.30;0.30;;;18.80;79.50;;;;;;5050564;28;20209;-67
2023/05/30 08:29:57;;;;;;;1.65;0.50;;;18.80;76.70;;;;;;5050973;28;20193;-66
2023/05/30 08:32:23;;;;;;;0.30;0.30;;;18.80;74.30;;;;;;5050962;28;20207;-67
2023/05/30 08:34:49;;;;;;;0.40;0.40;;;19.30;76.90;;;;;;5051279;28;20284;-66
2023/05/30 08:37:15;;;;;;;0.32;0.25;;;19.40;74.30;;;;;;5032764;28;20190;-66
2023/05/30 08:39:41;;;;;;;0.30;0.30;;;19.20;77.70;;;;;;5052848;28;20196;-66
2023/05/30 08:42:07;;;;;;;0.20;0.20;;;19.20;78.10;;;;;;5054227;28;20186;-66
2023/05/30 08:44:33;;;;;;;0.45;0.45;;;19.60;74.80;;;;;;5053796;28;20204;-67
2023/05/30 08:47:00;;;;;;;0.57;0.50;;;19.70;74.70;;;;;;5054392;28;20243;-66
2023/05/30 08:49:29;;;;;;;0.20;0.20;;;19.90;77.60;;;;;;5054167;28;20195;-67
2023/05/30 08:51:58;;;;;;;0.22;0.22;;;19.90;74.30;;;;;;5054412;28;20310;-66
2023/05/30 08:54:28;;;;;;;0.20;0.20;;;19.80;80.20;;;;;;5054405;28;20221;-67
2023/05/30 08:57:14;;;;;;;0.30;0.30;;;19.70;76.00;;;;;;5054735;28;20664;-67
2023/05/30 08:59:42;;;;;;;0.77;0.57;;;20.00;78.80;;;;;;5054449;28;20260;-66
2023/05/30 09:02:08;;;;;;;0.47;0.47;;;20.10;78.00;;;;;;5054223;28;20204;-65
2023/05/30 09:04:34;;;;;;;0.52;0.35;;;20.30;75.60;;;;;;5054256;28;20308;-65
2023/05/30 09:07:03;;;;;;;0.30;0.30;;;20.10;71.70;;;;;;5054509;28;20193;-67
2023/05/30 09:09:32;;;;;;;0.20;0.20;;;19.80;73.10;;;;;;5054155;28;20204;-67
2023/05/30 09:11:58;;;;;;;0.20;0.20;;;19.20;74.30;;;;;;5054379;28;20201;-67
2023/05/30 09:14:24;;;;;;;0.40;0.40;;;19.50;77.40;;;;;;5054230;28;20559;-66
2023/05/30 09:16:50;;;;;;;7.47;0.73;;;20.10;78.40;;;;;;5054246;28;20186;-67
2023/05/30 09:19:15;;;;;;;0.20;0.20;;;20.50;73.50;;;;;;5054084;28;20198;-66
2023/05/30 09:21:41;;;;;;;0.20;0.20;;;20.90;74.40;;;;;;5054145;28;20196;-66
2023/05/30 09:24:07;;;;;;;0.73;0.73;;;20.90;71.30;;;;;;5054061;28;20225;-66
2023/05/30 09:26:33;;;;;;;0.30;0.30;;;21.00;70.70;;;;;;5053976;28;20201;-66
2023/05/30 09:29:17;;;;;;;1.45;0.55;;;21.10;71.50;;;;;;5036314;28;20258;-66
2023/05/30 09:31:43;;;;;;;0.20;0.20;;;21.60;71.30;;;;;;5053929;28;20220;-67
2023/05/30 09:34:20;;;;;;;0.25;0.25;;;21.30;67.40;;;;;;5053841;28;20198;-66
2023/05/30 09:36:55;;;;;;;0.20;0.20;;;20.80;69.50;;;;;;5035744;28;20280;-66
2023/05/30 09:39:21;;;;;;;0.30;0.30;;;20.80;72.00;;;;;;5053693;28;20181;-66
2023/05/30 09:41:47;;;;;;;0.22;0.22;;;21.20;70.10;;;;;;5035788;28;20198;-66
2023/05/30 09:44:13;;;;;;;0.22;0.22;;;21.70;70.60;;;;;;5053139;28;20604;-67
2023/05/30 09:46:39;;;;;;;0.17;0.17;;;21.40;69.40;;;;;;5053775;28;20240;-66
2023/05/30 09:49:14;;;;;;;0.47;0.35;;;21.20;68.80;;;;;;5053759;28;20190;-66
2023/05/30 09:51:41;;;;;;;0.20;0.20;;;20.80;70.90;;;;;;5052434;28;20223;-65
2023/05/30 09:54:08;;;;;;;0.32;0.32;;;20.70;71.30;;;;;;5053560;28;20197;-66
2023/05/30 09:56:37;;;;;;;0.98;0.68;;;20.50;75.60;;;;;;5035676;28;20198;-65
2023/05/30 09:59:10;;;;;;;0.20;0.20;;;20.10;70.20;;;;;;5053525;28;20664;-66
2023/05/30 10:01:39;;;;;;;5.88;0.65;;;20.70;74.10;;;;;;5053209;28;20531;-66
2023/05/30 10:04:22;;;;;;;0.20;0.20;;;21.40;69.30;;;;;;5053188;28;20233;-66
2023/05/30 10:06:53;;;;;;;0.80;0.40;;;21.70;69.00;;;;;;5053427;28;20224;-66
2023/05/30 10:09:23;;;;;;;0.20;0.20;;;22.30;66.70;;;;;;5053174;28;20263;-68
2023/05/30 10:11:50;;;;;;;0.28;0.28;;;23.10;68.50;;;;;;5053295;28;20185;-66
2023/05/30 10:14:16;;;;;;;0.40;0.40;;;23.10;64.80;;;;;;5053085;28;20561;-65
2023/05/30 10:17:09;;;;;;;0.73;0.45;;;22.90;67.10;;;;;;5053062;28;20186;-66
2023/05/30 10:19:49;;;;;;;0.20;0.20;;;22.60;66.70;;;;;;5052468;28;20197;-66
2023/05/30 10:22:15;;;;;;;0.20;0.20;;;22.40;65.40;;;;;;5035023;28;20547;-66
2023/05/30 10:24:46;;;;;;;0.30;0.30;;;22.50;67.20;;;;;;5053489;28;20552;-66
2023/05/30 10:27:17;;;;;;;0.30;0.30;;;22.60;65.00;;;;;;5052940;28;20277;-67
2023/05/30 10:29:47;;;;;;;0.20;0.20;;;22.30;65.80;;;;;;5052866;28;20655;-67
2023/05/30 10:32:21;;;;;;;0.25;0.25;;;22.40;66.70;;;;;;5052867;28;20193;-67
2023/05/30 10:35:04;;;;;;;0.47;0.47;;;22.60;65.00;;;;;;5052709;28;20216;-66
2023/05/30 10:37:30;;;;;;;0.20;0.20;;;22.30;63.20;;;;;;5052959;28;20185;-67
2023/05/30 10:40:12;;;;;;;0.65;0.28;;;22.90;65.60;;;;;;5052657;28;20243;-66
2023/05/30 10:42:59;;;;;;;0.20;0.20;;;22.70;63.60;;;;;;5052475;28;20189;-66
2023/05/30 10:45:48;;;;;;;0.30;0.30;;;22.50;64.20;;;;;;5052048;28;20201;-69
2023/05/30 10:48:26;;;;;;;0.20;0.20;;;22.80;63.20;;;;;;5003869;28;20581;-69
2023/05/30 10:50:58;;;;;;;0.40;0.40;;;23.60;67.70;;;;;;5052519;28;20225;-67
2023/05/30 10:53:24;;;;;;;0.20;0.20;;;24.00;66.10;;;;;;5018357;28;20205;-68
2023/05/30 10:55:49;;;;;;;0.35;0.35;;;23.60;62.60;;;;;;5052372;28;20211;-68
2023/05/30 10:58:38;;;;;;;2.90;0.63;;;24.00;62.70;;;;;;5052318;28;20605;-68
2023/05/30 11:01:31;;;;;;;0.32;0.32;;;24.30;61.30;;;;;;5052176;28;20189;-68
2023/05/30 11:04:04;;;;;;;0.15;0.15;;;24.90;66.00;;;;;;5051814;28;20662;-68
2023/05/30 11:06:35;;;;;;;0.40;0.40;;;25.30;60.10;;;;;;5052032;28;20327;-70
2023/05/30 11:09:17;;;;;;;0.20;0.20;;;25.60;64.00;;;;;;5052210;28;20190;-70
2023/05/30 11:11:54;;;;;;;30.25;0.73;;;25.20;59.60;;;;;;5052324;28;20763;-70
2023/05/30 11:14:27;;;;;;;0.13;0.13;;;25.40;60.60;;;;;;5051613;28;20204;-69
2023/05/30 11:17:06;;;;;;;0.20;0.20;;;25.90;62.40;;;;;;5052105;28;20197;-69
2023/05/30 11:19:51;;;;;;;2.55;0.63;;;26.00;62.20;;;;;;5051673;28;20287;-68
2023/05/30 11:22:17;;;;;;;0.50;0.43;;;24.90;62.10;;;;;;5051815;28;20185;-69
2023/05/30 11:24:45;;;;;;;0.28;0.28;;;24.90;62.10;;;;;;5051803;28;20544;-68
2023/05/30 11:27:14;;;;;;;0.40;0.30;;;24.80;60.00;;;;;;5033903;28;20619;-69
2023/05/30 11:29:47;;;;;;;0.20;0.20;;;24.90;63.70;;;;;;5051740;28;20205;-69
2023/05/30 11:32:22;;;;;;;0.45;0.45;;;25.10;59.20;;;;;;5051818;28;20664;-69
2023/05/30 11:34:57;;;;;;;0.20;0.20;;;24.70;61.80;;;;;;5051707;28;20209;-69
2023/05/30 11:37:24;;;;;;;0.20;0.20;;;24.10;59.90;;;;;;5051742;28;20188;-70
2023/05/30 11:39:56;;;;;;;0.25;0.25;;;24.20;63.70;;;;;;5033869;28;20649;-70
2023/05/30 11:42:22;;;;;;;0.10;0.10;;;25.20;66.40;;;;;;5051527;28;20190;-69
2023/05/30 11:44:48;;;;;;;0.28;0.28;;;25.40;62.80;;;;;;5033207;28;20289;-69
2023/05/30 11:47:15;;;;;;;0.20;0.20;;;25.20;60.50;;;;;;5033873;28;20206;-68
2023/05/30 11:49:41;;;;;;;0.50;0.47;;;25.00;59.80;;;;;;5051199;28;20208;-69
2023/05/30 11:52:08;;;;;;;0.20;0.20;;;24.80;64.70;;;;;;5051714;28;20249;-68
2023/05/30 11:54:34;;;;;;;0.20;0.20;;;24.70;61.80;;;;;;5051399;28;20201;-68
2023/05/30 11:57:01;;;;;;;0.25;0.25;;;24.80;60.80;;;;;;5051781;28;20196;-69
2023/05/30 11:59:27;;;;;;;0.25;0.25;;;24.80;59.90;;;;;;5051286;28;20193;-69
2023/05/30 12:02:01;;;;;;;0.20;0.20;;;25.10;61.00;;;;;;5050955;28;20243;-70
2023/05/30 12:04:31;;;;;;;0.25;0.25;;;24.90;62.30;;;;;;5050224;28;20229;-68
2023/05/30 12:07:02;;;;;;;0.30;0.30;;;24.60;61.30;;;;;;5051065;28;20208;-69
2023/05/30 12:09:38;;;;;;;0.90;0.75;;;25.00;61.20;;;;;;5049377;28;21097;-69
2023/05/30 12:12:06;;;;;;;0.10;0.10;;;24.90;61.00;;;;;;5023473;28;20192;-70
2023/05/30 12:14:49;;;;;;;0.10;0.10;;;25.00;63.60;;;;;;5040001;28;20540;-69
2023/05/30 12:17:18;;;;;;;0.17;0.17;;;25.50;61.80;;;;;;5049279;28;20193;-70
2023/05/30 12:19:59;;;;;;;0.20;0.20;;;25.50;59.10;;;;;;5033039;28;20284;-68
2023/05/30 12:22:27;;;;;;;0.20;0.20;;;25.20;57.80;;;;;;5040680;28;20248;-69
2023/05/30 12:24:53;;;;;;;0.22;0.22;;;25.60;59.30;;;;;;5035609;28;20237;-68
2023/05/30 12:27:21;;;;;;;0.30;0.30;;;26.00;58.60;;;;;;5037303;28;20199;-68
2023/05/30 12:29:48;;;;;;;1.63;0.45;;;26.30;60.70;;;;;;5054787;28;20206;-69
2023/05/30 12:32:20;;;;;;;0.25;0.25;;;26.30;56.20;;;;;;5055210;28;20193;-68
2023/05/30 12:34:46;;;;;;;0.20;0.20;;;26.00;58.60;;;;;;5054758;28;20201;-70
2023/05/30 12:37:14;;;;;;;0.10;0.10;;;26.20;59.10;;;;;;5054894;28;20574;-69
2023/05/30 12:39:47;;;;;;;0.20;0.20;;;25.70;56.60;;;;;;5054460;28;20189;-69
2023/05/30 12:42:19;;;;;;;0.20;0.20;;;25.70;57.40;;;;;;5055019;28;20664;-68
2023/05/30 12:44:47;;;;;;;0.20;0.20;;;25.70;58.60;;;;;;5048141;28;20284;-69
2023/05/30 12:47:13;;;;;;;0.50;0.50;;;26.10;59.30;;;;;;5041428;28;20531;-68
2023/05/30 12:49:40;;;;;;;0.20;0.20;;;26.20;57.20;;;;;;5054600;28;20197;-68
2023/05/30 12:52:07;;;;;;;0.20;0.20;;;26.10;57.20;;;;;;5054850;28;20217;-69
2023/05/30 12:54:33;;;;;;;0.10;0.10;;;25.90;56.90;;;;;;5054455;28;20193;-69
2023/05/30 12:56:59;;;;;;;0.10;0.10;;;25.70;59.20;;;;;;5054658;28;20201;-70